DGF weather

Douglas Lake Airport
Douglas Lake, British Columbia, Canada

Public forecast

Using degrees Celsius for public forecast. Weather courtesy of forecast.io.

Closest aviation weather report (METAR) to Douglas Lake Airport

Closest report is Kelowna International Airport, 33.1 nm (61.2 km) ESE. Retrieved 2020/05/29 18:00 UTC (38 minutes ago):

CYLW 291800Z AUTO 36003KT 230V040 9SM CLR 19/08 A2999 RMK SLP156 DENSITY ALT 2100FT

Closest aviation forecast (TAF) to Douglas Lake Airport

Closest forecast is Kelowna International Airport, 33.1 nm (61.2 km) ESE. Retrieved 2020/05/29 13:39 UTC (5 hours ago):

TAF CYLW 291238Z 2913/3001 VRB03KT P6SM BKN120 BECMG 2914/2916 35008KT BECMG 2920/2922 35015KT RMK FCST BASED ON AUTO OBS NXT FCST BY 291900Z